Time;durP1;ratioP1;P1;durP2;ratioP2;P2;SDS_P1;SDS_P2;PMS_P1;PMS_P2;Temp;Humidity;BMP_temperature;BMP_pressure;BME280_temperature;BME280_humidity;BME280_pressure;Samples;Min_cycle;Max_cycle;Signal;HPM_P1;HPM_P2
2022/02/19 00:00:56;;;;;;;3.80;1.92;;;17.30;50.90;;;;;;5055844;28;20232;-60
2022/02/19 00:03:22;;;;;;;6.95;2.13;;;17.30;50.00;;;;;;5056034;28;20171;-59
2022/02/19 00:05:47;;;;;;;7.38;2.03;;;17.30;49.70;;;;;;5055345;28;20175;-60
2022/02/19 00:08:15;;;;;;;4.40;1.70;;;17.30;50.00;;;;;;5055578;28;20187;-60
2022/02/19 00:10:41;;;;;;;4.78;2.20;;;17.30;49.90;;;;;;5055704;28;20733;-62
2022/02/19 00:13:07;;;;;;;4.88;2.05;;;17.30;50.00;;;;;;5054812;28;20626;-64
2022/02/19 00:15:32;;;;;;;5.10;1.85;;;17.30;50.20;;;;;;5055590;28;20297;-63
2022/02/19 00:17:58;;;;;;;5.68;1.70;;;17.20;50.20;;;;;;5055324;28;20182;-63
2022/02/19 00:20:24;;;;;;;5.85;1.80;;;17.20;50.30;;;;;;5054805;28;20269;-62
2022/02/19 00:22:49;;;;;;;3.97;1.90;;;17.20;50.30;;;;;;5055745;28;20210;-62
2022/02/19 00:25:15;;;;;;;4.30;1.77;;;17.20;50.30;;;;;;5055135;28;20662;-61
2022/02/19 00:27:40;;;;;;;3.67;1.55;;;17.20;50.30;;;;;;5054700;28;20182;-60
2022/02/19 00:30:07;;;;;;;3.47;1.60;;;17.20;50.30;;;;;;5055298;28;20214;-60
2022/02/19 00:32:32;;;;;;;6.57;2.17;;;17.20;50.30;;;;;;5054371;28;20174;-60
2022/02/19 00:34:58;;;;;;;3.13;1.60;;;17.20;50.30;;;;;;5054509;28;20167;-60
2022/02/19 00:37:23;;;;;;;4.10;1.73;;;17.20;50.20;;;;;;5055492;28;20202;-61
2022/02/19 00:39:49;;;;;;;4.63;1.52;;;17.20;50.10;;;;;;5055502;28;20207;-62
2022/02/19 00:42:14;;;;;;;4.05;1.75;;;17.20;50.10;;;;;;5054220;28;20189;-62
2022/02/19 00:44:40;;;;;;;5.05;1.88;;;17.20;50.20;;;;;;5055272;28;20630;-61
2022/02/19 00:47:06;;;;;;;5.88;2.08;;;17.10;50.20;;;;;;5053971;28;20187;-62
2022/02/19 00:49:31;;;;;;;5.00;1.77;;;17.10;50.00;;;;;;5055135;28;20198;-61
2022/02/19 00:51:57;;;;;;;4.40;1.60;;;17.10;50.10;;;;;;5054882;28;20183;-62
2022/02/19 00:54:23;;;;;;;2.90;1.50;;;17.10;50.00;;;;;;5054283;28;20500;-62
2022/02/19 00:56:48;;;;;;;6.93;2.20;;;17.10;50.20;;;;;;5054662;28;20681;-61
2022/02/19 00:59:14;;;;;;;3.63;2.30;;;17.10;50.10;;;;;;5054463;28;20175;-60
2022/02/19 01:01:39;;;;;;;4.18;1.40;;;17.10;50.10;;;;;;5054290;28;20213;-60
2022/02/19 01:04:05;;;;;;;5.15;1.65;;;17.10;50.20;;;;;;5054719;28;20171;-60
2022/02/19 01:06:31;;;;;;;5.15;1.98;;;17.10;50.20;;;;;;5055077;28;20597;-60
2022/02/19 01:08:57;;;;;;;4.35;1.95;;;17.00;50.20;;;;;;5053696;28;20560;-61
2022/02/19 01:11:22;;;;;;;5.95;1.92;;;17.10;50.40;;;;;;5054534;28;20215;-62
2022/02/19 01:13:51;;;;;;;5.30;1.92;;;17.00;50.20;;;;;;5054513;28;20247;-62
2022/02/19 01:16:17;;;;;;;5.18;2.03;;;17.10;50.30;;;;;;5053751;28;20182;-63
2022/02/19 01:18:42;;;;;;;4.47;1.80;;;17.00;50.20;;;;;;5054327;28;20541;-63
2022/02/19 01:21:08;;;;;;;6.60;2.15;;;17.00;50.10;;;;;;5053427;28;20186;-62
2022/02/19 01:23:33;;;;;;;5.30;1.98;;;17.00;50.30;;;;;;5053778;28;20182;-61
2022/02/19 01:25:59;;;;;;;4.72;1.80;;;17.00;50.40;;;;;;5053895;28;20186;-61
2022/02/19 01:28:24;;;;;;;4.72;1.70;;;17.00;50.20;;;;;;5054534;28;20179;-60
2022/02/19 01:30:50;;;;;;;5.10;1.58;;;17.00;50.10;;;;;;5053695;28;20210;-60
2022/02/19 01:33:15;;;;;;;8.88;2.10;;;17.00;50.20;;;;;;5054036;28;20211;-59
2022/02/19 01:35:41;;;;;;;4.10;1.67;;;17.00;50.30;;;;;;5054481;28;20171;-60
2022/02/19 01:38:06;;;;;;;3.58;1.80;;;16.90;50.00;;;;;;5052948;28;20175;-61
2022/02/19 01:40:32;;;;;;;4.75;2.00;;;16.90;50.10;;;;;;5054102;28;20656;-61
2022/02/19 01:42:57;;;;;;;3.67;2.00;;;16.90;50.30;;;;;;5053867;28;20244;-61
2022/02/19 01:45:23;;;;;;;3.85;1.60;;;16.90;50.30;;;;;;5053314;28;20179;-61
2022/02/19 01:47:48;;;;;;;5.43;1.85;;;16.90;50.20;;;;;;5053944;28;20228;-62
2022/02/19 01:50:14;;;;;;;6.20;1.80;;;16.90;50.30;;;;;;5053383;28;20670;-61
2022/02/19 01:52:41;;;;;;;4.10;2.03;;;16.90;50.40;;;;;;5053328;28;20182;-62
2022/02/19 01:55:07;;;;;;;6.78;1.90;;;16.90;50.40;;;;;;5036004;28;20175;-63
2022/02/19 01:57:32;;;;;;;4.70;1.83;;;16.90;50.20;;;;;;5052822;28;20230;-61
2022/02/19 01:59:58;;;;;;;5.85;1.85;;;16.90;50.40;;;;;;5053589;28;20214;-60
2022/02/19 02:02:23;;;;;;;3.92;1.60;;;16.90;50.30;;;;;;5053844;28;20266;-59
2022/02/19 02:04:49;;;;;;;3.00;1.60;;;16.90;50.40;;;;;;5052707;28;20179;-59
2022/02/19 02:07:14;;;;;;;4.13;1.70;;;16.80;50.30;;;;;;5053561;28;20178;-60
2022/02/19 02:09:40;;;;;;;5.00;1.50;;;16.80;50.40;;;;;;5053514;28;20206;-61
2022/02/19 02:12:09;;;;;;;3.20;1.35;;;16.80;50.30;;;;;;5052636;28;20167;-64
2022/02/19 02:14:39;;;;;;;3.40;1.33;;;16.80;50.20;;;;;;5053672;28;20171;-64
2022/02/19 02:17:04;;;;;;;5.55;1.90;;;16.80;50.40;;;;;;5053345;28;20659;-64
2022/02/19 02:19:30;;;;;;;3.40;1.33;;;16.80;50.30;;;;;;5052768;28;20258;-63
2022/02/19 02:21:55;;;;;;;3.33;1.65;;;16.80;50.30;;;;;;5053096;28;20179;-62
2022/02/19 02:24:21;;;;;;;3.97;1.83;;;16.80;50.30;;;;;;5053120;28;20537;-62
2022/02/19 02:26:46;;;;;;;4.03;1.45;;;16.80;50.30;;;;;;5052771;28;20180;-61
2022/02/19 02:29:12;;;;;;;3.90;1.55;;;16.80;50.00;;;;;;5053111;28;20737;-61
2022/02/19 02:31:37;;;;;;;4.10;1.40;;;16.80;50.00;;;;;;5053301;28;20266;-60
2022/02/19 02:34:03;;;;;;;5.25;1.75;;;16.80;50.00;;;;;;5052181;28;20533;-61
2022/02/19 02:36:28;;;;;;;4.53;1.55;;;16.70;50.20;;;;;;5053073;28;20182;-60
2022/02/19 02:38:54;;;;;;;2.78;1.50;;;16.80;50.20;;;;;;5052663;28;20171;-62
2022/02/19 02:41:21;;;;;;;6.32;2.00;;;16.70;50.00;;;;;;5052559;28;20669;-61
2022/02/19 02:43:46;;;;;;;4.13;1.33;;;16.70;50.00;;;;;;5053179;28;20517;-61
2022/02/19 02:46:12;;;;;;;4.05;1.52;;;16.70;50.00;;;;;;5052902;28;20717;-61
2022/02/19 02:48:37;;;;;;;3.72;1.75;;;16.70;50.10;;;;;;5052299;28;20186;-61
2022/02/19 02:51:03;;;;;;;4.22;1.80;;;16.70;50.20;;;;;;5052409;28;20298;-63
2022/02/19 02:53:29;;;;;;;3.50;1.60;;;16.70;50.10;;;;;;5052782;28;20261;-61
2022/02/19 02:55:55;;;;;;;3.92;1.40;;;16.70;50.10;;;;;;5051181;28;20185;-60
2022/02/19 02:58:20;;;;;;;3.40;1.58;;;16.70;50.20;;;;;;5052692;28;20723;-60
2022/02/19 03:00:45;;;;;;;3.80;1.65;;;16.70;50.30;;;;;;5051959;28;20266;-60
2022/02/19 03:03:11;;;;;;;4.38;1.90;;;16.70;50.30;;;;;;5052540;28;20171;-59
2022/02/19 03:05:37;;;;;;;3.75;1.52;;;16.70;50.30;;;;;;5052846;28;20179;-59
2022/02/19 03:08:02;;;;;;;3.05;1.77;;;16.60;50.20;;;;;;5051701;28;20179;-60
2022/02/19 03:10:28;;;;;;;3.47;1.67;;;16.60;50.20;;;;;;5052729;28;20245;-61
2022/02/19 03:12:53;;;;;;;3.60;1.40;;;16.60;50.10;;;;;;5052541;28;20171;-64
2022/02/19 03:15:21;;;;;;;3.28;1.10;;;16.60;50.20;;;;;;5052163;28;20171;-63
2022/02/19 03:17:46;;;;;;;3.65;1.40;;;16.60;50.30;;;;;;5052656;28;20513;-63
2022/02/19 03:20:17;;;;;;;3.65;1.75;;;16.60;50.30;;;;;;5052423;28;20710;-61
2022/02/19 03:22:44;;;;;;;3.70;2.05;;;16.60;50.20;;;;;;5051782;28;20182;-61
2022/02/19 03:25:10;;;;;;;3.78;1.50;;;16.60;50.30;;;;;;5052419;28;20179;-60
2022/02/19 03:27:36;;;;;;;4.72;1.30;;;16.60;50.30;;;;;;5052663;28;20175;-60
2022/02/19 03:30:01;;;;;;;3.95;1.33;;;16.60;50.30;;;;;;5051487;28;20254;-60
2022/02/19 03:32:27;;;;;;;4.60;1.65;;;16.60;50.30;;;;;;5052846;28;20172;-60
2022/02/19 03:34:52;;;;;;;3.55;1.48;;;16.60;50.30;;;;;;5052258;28;20190;-60
2022/02/19 03:37:18;;;;;;;2.17;1.35;;;16.60;50.30;;;;;;5051700;28;20194;-60
2022/02/19 03:39:43;;;;;;;5.78;2.10;;;16.50;50.30;;;;;;5052635;28;20203;-60
2022/02/19 03:42:09;;;;;;;3.10;1.42;;;16.60;50.30;;;;;;5052145;28;20174;-61
2022/02/19 03:44:34;;;;;;;3.50;1.48;;;16.50;50.30;;;;;;5051632;28;20175;-61
2022/02/19 03:47:00;;;;;;;6.22;1.83;;;16.50;50.30;;;;;;5052117;28;20179;-64
2022/02/19 03:49:25;;;;;;;3.88;1.80;;;16.50;50.20;;;;;;5052237;28;20175;-62
2022/02/19 03:51:51;;;;;;;3.65;1.60;;;16.50;50.30;;;;;;5051541;28;20172;-64
2022/02/19 03:54:16;;;;;;;2.83;1.40;;;16.50;50.20;;;;;;5052133;28;20660;-63
2022/02/19 03:56:43;;;;;;;4.10;1.35;;;16.50;50.30;;;;;;5051978;28;20724;-62
2022/02/19 03:59:14;;;;;;;2.92;1.33;;;16.50;50.50;;;;;;5051325;28;20183;-62
2022/02/19 04:01:43;;;;;;;3.95;1.73;;;16.50;50.30;;;;;;5052409;28;20168;-61
2022/02/19 04:04:08;;;;;;;2.97;1.13;;;16.50;50.40;;;;;;5051286;28;20171;-61
2022/02/19 04:06:34;;;;;;;3.60;1.58;;;16.50;50.20;;;;;;5052498;28;20179;-61
2022/02/19 04:08:59;;;;;;;3.63;1.30;;;16.50;50.40;;;;;;5055808;28;20175;-63
2022/02/19 04:11:25;;;;;;;5.60;1.42;;;16.50;50.40;;;;;;5055158;28;20207;-64
2022/02/19 04:13:50;;;;;;;4.10;1.75;;;16.50;50.40;;;;;;5055795;28;20174;-64
2022/02/19 04:16:16;;;;;;;2.83;1.52;;;16.50;50.50;;;;;;5055542;28;20531;-64
2022/02/19 04:18:41;;;;;;;3.65;1.48;;;16.50;50.40;;;;;;5054912;28;20256;-63
2022/02/19 04:21:07;;;;;;;4.25;1.40;;;16.40;50.40;;;;;;5055243;28;20175;-64
2022/02/19 04:23:33;;;;;;;4.47;1.50;;;16.40;50.40;;;;;;5055925;28;20187;-62
2022/02/19 04:25:59;;;;;;;3.67;1.70;;;16.40;50.30;;;;;;5054850;28;20175;-63
2022/02/19 04:28:26;;;;;;;3.60;1.30;;;16.40;51.10;;;;;;5055722;28;20167;-61
2022/02/19 04:30:52;;;;;;;4.55;2.22;;;16.40;50.50;;;;;;5055441;28;20550;-61
2022/02/19 04:33:18;;;;;;;4.13;1.60;;;16.40;50.50;;;;;;5054782;28;20186;-61
2022/02/19 04:35:45;;;;;;;3.00;1.80;;;16.40;50.50;;;;;;5055536;28;20199;-61
2022/02/19 04:38:11;;;;;;;2.25;1.13;;;16.40;50.40;;;;;;5055272;28;20179;-62
2022/02/19 04:40:40;;;;;;;3.60;1.50;;;16.40;50.40;;;;;;5054572;28;20233;-61
2022/02/19 04:43:05;;;;;;;2.08;1.10;;;16.40;50.40;;;;;;5054912;28;20191;-63
2022/02/19 04:45:31;;;;;;;3.67;2.00;;;16.40;50.50;;;;;;5054988;28;20543;-62
2022/02/19 04:47:57;;;;;;;3.47;1.52;;;16.40;50.40;;;;;;5054101;28;20179;-62
2022/02/19 04:50:22;;;;;;;4.13;1.55;;;16.40;50.40;;;;;;5054971;28;20210;-62
2022/02/19 04:52:48;;;;;;;4.10;1.70;;;16.40;50.40;;;;;;5055128;28;20213;-63
2022/02/19 04:55:14;;;;;;;3.22;1.45;;;16.40;50.50;;;;;;5054208;28;20214;-63
2022/02/19 04:57:43;;;;;;;4.70;2.05;;;16.40;50.40;;;;;;5054820;28;20223;-62
2022/02/19 05:00:12;;;;;;;3.45;1.45;;;16.30;50.60;;;;;;5054569;28;20179;-61
2022/02/19 05:02:38;;;;;;;3.83;1.40;;;16.30;50.60;;;;;;5054150;28;20175;-61
2022/02/19 05:05:04;;;;;;;2.58;1.25;;;16.30;50.60;;;;;;5054716;28;20190;-61
2022/02/19 05:07:32;;;;;;;2.30;1.10;;;16.30;50.40;;;;;;5054299;28;20559;-61
2022/02/19 05:09:57;;;;;;;4.25;1.77;;;16.30;50.50;;;;;;5054539;28;20191;-63
2022/02/19 05:12:23;;;;;;;2.72;1.52;;;16.30;50.40;;;;;;5054823;28;20171;-64
2022/02/19 05:14:48;;;;;;;3.42;1.63;;;16.30;50.50;;;;;;5053874;28;20163;-63
2022/02/19 05:17:15;;;;;;;4.93;1.83;;;16.30;50.40;;;;;;5054102;28;20179;-64
2022/02/19 05:19:41;;;;;;;2.60;1.45;;;16.30;50.60;;;;;;5054692;28;20183;-64
2022/02/19 05:22:06;;;;;;;2.90;1.60;;;16.30;50.60;;;;;;5053583;28;20513;-63
2022/02/19 05:24:32;;;;;;;5.82;1.75;;;16.20;50.60;;;;;;5054444;28;20538;-62
2022/02/19 05:26:57;;;;;;;5.65;1.83;;;16.30;50.50;;;;;;5054193;28;20190;-62
2022/02/19 05:29:23;;;;;;;3.13;1.45;;;16.20;50.60;;;;;;5053574;28;20253;-61
2022/02/19 05:31:48;;;;;;;4.55;1.83;;;16.30;50.60;;;;;;5054320;28;20171;-60
2022/02/19 05:34:14;;;;;;;2.20;1.20;;;16.20;50.50;;;;;;5053998;28;20178;-61
2022/02/19 05:36:39;;;;;;;5.97;2.10;;;16.30;50.60;;;;;;5053634;28;20595;-61
2022/02/19 05:39:05;;;;;;;3.25;1.65;;;16.20;50.50;;;;;;5053786;28;20194;-62
2022/02/19 05:41:30;;;;;;;3.35;1.42;;;16.20;50.30;;;;;;5054384;28;20250;-62
2022/02/19 05:43:56;;;;;;;2.75;1.38;;;16.20;50.50;;;;;;5053079;28;20612;-62
2022/02/19 05:46:21;;;;;;;3.13;1.48;;;16.20;50.50;;;;;;5054093;28;20175;-61
2022/02/19 05:48:47;;;;;;;2.83;1.38;;;16.20;51.10;;;;;;5053934;28;20183;-62
2022/02/19 05:51:12;;;;;;;3.45;1.20;;;16.20;50.50;;;;;;5052727;28;20732;-63
2022/02/19 05:53:38;;;;;;;2.70;1.58;;;16.20;50.50;;;;;;5054114;28;20174;-63
2022/02/19 05:56:04;;;;;;;3.33;1.55;;;16.20;50.50;;;;;;5053605;28;20208;-63
2022/02/19 05:58:29;;;;;;;2.28;1.38;;;16.20;50.50;;;;;;5053337;28;20630;-61
2022/02/19 06:00:55;;;;;;;3.35;1.50;;;16.20;50.50;;;;;;5053473;28;20175;-61
2022/02/19 06:03:20;;;;;;;3.75;1.30;;;16.20;50.50;;;;;;5053838;28;20716;-60
2022/02/19 06:05:46;;;;;;;3.70;1.85;;;16.20;50.50;;;;;;5052974;28;20618;-61
2022/02/19 06:08:11;;;;;;;3.10;1.30;;;16.20;50.50;;;;;;5053381;28;20689;-61
2022/02/19 06:10:37;;;;;;;4.72;1.67;;;16.20;50.50;;;;;;5052936;28;20211;-63
2022/02/19 06:13:02;;;;;;;6.18;2.00;;;16.10;50.30;;;;;;5053671;28;20229;-64
2022/02/19 06:15:28;;;;;;;4.03;1.70;;;16.10;50.20;;;;;;5053540;28;20206;-63
2022/02/19 06:17:53;;;;;;;4.18;1.75;;;16.10;50.30;;;;;;5052493;28;20185;-63
2022/02/19 06:20:19;;;;;;;4.47;1.60;;;16.10;50.50;;;;;;5053560;28;20171;-62
2022/02/19 06:22:44;;;;;;;6.95;1.70;;;16.10;50.50;;;;;;5053436;28;20221;-63
2022/02/19 06:25:13;;;;;;;3.13;1.20;;;16.10;50.30;;;;;;5052373;28;20175;-62
2022/02/19 06:27:40;;;;;;;5.10;1.65;;;16.10;50.50;;;;;;5053365;28;20180;-61
2022/02/19 06:30:06;;;;;;;4.53;1.63;;;16.10;50.50;;;;;;5051968;28;20286;-61
2022/02/19 06:32:31;;;;;;;3.28;1.33;;;16.10;50.50;;;;;;5052589;28;20185;-61
2022/02/19 06:34:57;;;;;;;2.47;1.27;;;16.10;50.50;;;;;;5053204;28;20246;-62
2022/02/19 06:37:22;;;;;;;2.67;1.23;;;16.10;50.50;;;;;;5053106;28;20626;-62
2022/02/19 06:39:48;;;;;;;2.72;1.42;;;16.10;50.50;;;;;;5052453;28;20194;-61
2022/02/19 06:42:13;;;;;;;3.65;1.70;;;16.10;50.50;;;;;;5052761;28;20667;-61
2022/02/19 06:44:40;;;;;;;2.20;1.17;;;16.10;50.30;;;;;;5052900;28;20167;-61
2022/02/19 06:47:06;;;;;;;4.05;1.67;;;16.10;50.40;;;;;;5051905;28;20183;-61
2022/02/19 06:49:32;;;;;;;2.55;1.52;;;16.00;50.50;;;;;;5053375;28;20262;-62
2022/02/19 06:51:57;;;;;;;4.13;1.65;;;16.00;50.50;;;;;;5052620;28;20203;-62
2022/02/19 06:54:23;;;;;;;4.70;1.63;;;16.10;50.50;;;;;;5052231;28;20568;-62
2022/02/19 06:56:49;;;;;;;5.07;1.83;;;16.00;50.60;;;;;;5052590;28;20235;-62
2022/02/19 06:59:14;;;;;;;4.38;1.67;;;16.00;50.60;;;;;;5052550;28;20167;-60
2022/02/19 07:01:40;;;;;;;3.58;1.30;;;16.00;50.60;;;;;;5052084;28;20227;-61
2022/02/19 07:04:05;;;;;;;4.32;1.38;;;16.00;50.70;;;;;;5052640;28;20642;-60
2022/02/19 07:06:31;;;;;;;2.97;1.20;;;16.00;50.60;;;;;;5053021;28;20167;-60
2022/02/19 07:08:57;;;;;;;2.95;1.58;;;16.10;50.70;;;;;;5051749;28;20182;-61
2022/02/19 07:11:24;;;;;;;3.53;1.27;;;16.10;50.70;;;;;;5052500;28;20575;-64
2022/02/19 07:13:49;;;;;;;5.30;2.40;;;16.10;50.60;;;;;;5052526;28;20254;-65
2022/02/19 07:16:15;;;;;;;5.05;1.60;;;16.20;50.60;;;;;;5051683;28;20317;-65
2022/02/19 07:18:40;;;;;;;4.18;1.35;;;16.20;50.70;;;;;;5052720;28;20244;-67
2022/02/19 07:21:06;;;;;;;3.80;1.17;;;16.30;50.60;;;;;;5051631;28;20179;-67
2022/02/19 07:23:31;;;;;;;3.90;1.23;;;16.40;50.60;;;;;;5052585;28;20175;-73
2022/02/19 07:25:57;;;;;;;3.75;1.55;;;16.50;50.70;;;;;;5052310;28;20183;-67
2022/02/19 07:28:22;;;;;;;5.65;1.80;;;16.50;50.70;;;;;;5051569;28;20163;-70
2022/02/19 07:30:48;;;;;;;3.33;1.42;;;16.60;50.70;;;;;;5052544;28;20252;-73
2022/02/19 07:33:13;;;;;;;4.90;2.05;;;16.60;50.70;;;;;;5051995;28;20202;-66
2022/02/19 07:35:39;;;;;;;4.60;1.35;;;16.80;50.70;;;;;;5051676;28;20183;-66
2022/02/19 07:38:05;;;;;;;3.15;1.38;;;16.90;50.70;;;;;;5052152;28;20175;-65
2022/02/19 07:40:31;;;;;;;2.83;1.40;;;17.10;50.40;;;;;;5052545;28;20183;-65
2022/02/19 07:42:56;;;;;;;2.50;1.17;;;17.30;50.20;;;;;;5055285;28;20203;-63
2022/02/19 07:45:22;;;;;;;4.40;1.30;;;17.60;50.00;;;;;;5056324;28;20634;-63
2022/02/19 07:47:48;;;;;;;3.33;1.50;;;17.80;49.80;;;;;;5056399;28;20190;-63
2022/02/19 07:58:28;;;;;;;3.15;1.30;;;18.10;49.40;;;;;;5075305;28;20240;-65
2022/02/19 08:00:56;;;;;;;4.15;1.40;;;18.10;49.40;;;;;;5075850;28;20181;-65
2022/02/19 08:03:23;;;;;;;3.53;1.30;;;18.10;49.40;;;;;;5069057;28;20171;-64
2022/02/19 08:05:49;;;;;;;2.53;1.50;;;18.20;49.60;;;;;;5046407;28;20253;-65
2022/02/19 08:08:15;;;;;;;3.60;1.42;;;18.20;49.60;;;;;;5065333;28;20212;-67
2022/02/19 08:10:42;;;;;;;3.75;1.55;;;18.20;49.60;;;;;;5064876;28;20309;-67
2022/02/19 08:13:08;;;;;;;3.13;1.20;;;18.20;49.60;;;;;;5069828;28;20312;-66
2022/02/19 08:15:34;;;;;;;2.72;1.17;;;18.20;49.50;;;;;;5075657;28;20211;-67
2022/02/19 08:18:01;;;;;;;3.40;1.33;;;18.20;49.50;;;;;;5074692;28;20182;-67
2022/02/19 08:20:26;;;;;;;3.55;1.30;;;18.20;49.40;;;;;;5075224;28;20651;-66
2022/02/19 08:22:52;;;;;;;2.25;1.42;;;18.20;49.40;;;;;;5075293;28;20258;-67
2022/02/19 08:25:18;;;;;;;2.72;1.33;;;18.20;49.30;;;;;;5074786;28;20618;-68
2022/02/19 08:27:44;;;;;;;3.67;1.70;;;18.20;49.30;;;;;;5075616;28;20190;-69
2022/02/19 08:30:10;;;;;;;2.15;1.08;;;18.20;49.20;;;;;;5075095;28;20210;-67
2022/02/19 08:32:36;;;;;;;3.25;1.52;;;18.30;49.30;;;;;;5074673;28;20622;-68
2022/02/19 08:35:01;;;;;;;2.80;1.23;;;18.30;49.30;;;;;;5075142;28;20221;-68
2022/02/19 08:37:27;;;;;;;4.68;1.02;;;18.30;49.40;;;;;;5075178;28;20183;-66
2022/02/19 08:39:52;;;;;;;2.63;1.30;;;18.30;49.50;;;;;;5074651;28;20196;-67
2022/02/19 08:42:18;;;;;;;3.30;1.30;;;18.40;49.50;;;;;;5073835;28;20181;-68
2022/02/19 08:44:43;;;;;;;3.60;1.30;;;18.30;49.50;;;;;;5065064;28;20266;-66
2022/02/19 08:47:09;;;;;;;1.95;1.13;;;18.30;49.50;;;;;;5062748;28;20339;-65
2022/02/19 08:49:34;;;;;;;2.30;1.10;;;18.40;49.50;;;;;;5065312;28;20174;-65
2022/02/19 08:52:00;;;;;;;2.40;1.25;;;18.40;49.50;;;;;;5063476;28;20261;-65
2022/02/19 08:54:26;;;;;;;2.08;1.20;;;18.40;49.50;;;;;;5057764;28;20225;-66
2022/02/19 08:56:52;;;;;;;6.82;1.13;;;18.40;49.50;;;;;;5054635;28;20238;-65
2022/02/19 08:59:18;;;;;;;2.20;0.90;;;18.50;49.60;;;;;;5054624;28;20183;-66
2022/02/19 09:01:44;;;;;;;4.20;1.20;;;18.50;49.60;;;;;;5055803;28;20210;-65
2022/02/19 09:04:10;;;;;;;3.65;1.55;;;18.40;49.50;;;;;;5064309;28;20606;-65
2022/02/19 09:06:39;;;;;;;4.32;1.38;;;18.40;50.10;;;;;;5060632;28;20207;-66
2022/02/19 09:09:05;;;;;;;3.78;1.60;;;18.40;49.30;;;;;;5054481;28;20190;-65
2022/02/19 09:11:35;;;;;;;2.65;1.17;;;18.50;49.40;;;;;;5072986;28;20274;-65
2022/02/19 09:14:04;;;;;;;2.33;1.38;;;18.50;49.30;;;;;;5073563;28;20182;-64
2022/02/19 09:16:32;;;;;;;4.90;1.58;;;18.50;49.30;;;;;;5074554;28;20247;-64
2022/02/19 09:19:01;;;;;;;2.00;1.08;;;18.50;49.20;;;;;;5064599;28;20179;-64
2022/02/19 09:21:28;;;;;;;3.67;1.13;;;18.50;49.20;;;;;;5053708;28;20556;-65
2022/02/19 09:23:53;;;;;;;1.85;0.90;;;18.50;49.20;;;;;;5053804;28;20183;-64
2022/02/19 09:26:20;;;;;;;3.80;1.52;;;18.50;49.10;;;;;;5054095;28;20186;-65
2022/02/19 09:28:46;;;;;;;3.25;1.35;;;18.50;49.20;;;;;;5053876;28;20205;-65
2022/02/19 09:31:11;;;;;;;5.07;1.73;;;18.60;49.10;;;;;;5053764;28;20269;-65
2022/02/19 09:33:37;;;;;;;3.10;1.40;;;18.50;49.00;;;;;;5053947;28;20182;-66
2022/02/19 09:36:03;;;;;;;3.30;1.17;;;18.50;49.00;;;;;;5062714;28;20194;-65
2022/02/19 09:38:28;;;;;;;2.00;1.17;;;18.50;49.10;;;;;;5074132;28;20171;-65
2022/02/19 09:40:55;;;;;;;2.42;1.30;;;18.40;49.20;;;;;;5073676;28;20174;-65
2022/02/19 09:43:20;;;;;;;2.92;1.42;;;18.40;49.20;;;;;;5073432;28;20185;-65
2022/02/19 09:45:46;;;;;;;2.78;1.23;;;18.30;49.20;;;;;;5056100;28;20178;-69
2022/02/19 09:48:12;;;;;;;5.03;1.60;;;18.30;49.40;;;;;;5073833;28;20219;-65
2022/02/19 09:50:37;;;;;;;4.47;1.70;;;18.30;49.40;;;;;;5072242;28;20654;-66
2022/02/19 09:53:03;;;;;;;3.90;1.20;;;18.30;49.50;;;;;;5055703;28;20212;-64
2022/02/19 09:55:29;;;;;;;3.35;1.85;;;18.30;49.60;;;;;;5073838;28;20212;-66
2022/02/19 09:57:54;;;;;;;4.32;1.45;;;18.40;49.70;;;;;;5072693;28;20218;-67
2022/02/19 10:00:47;;;;;;;3.60;1.20;;;18.50;49.60;;;;;;5073376;28;20174;-67
2022/02/19 10:03:24;;;;;;;3.42;1.58;;;18.50;49.50;;;;;;5071958;28;20189;-66
2022/02/19 10:05:50;;;;;;;3.00;1.05;;;18.60;49.60;;;;;;5073537;28;20205;-66
2022/02/19 10:08:16;;;;;;;3.33;1.35;;;18.40;49.60;;;;;;5073341;28;20182;-67
2022/02/19 10:10:51;;;;;;;2.83;1.42;;;18.40;49.80;;;;;;5058765;28;20754;-66
2022/02/19 10:13:46;;;;;;;4.20;1.30;;;18.30;49.80;;;;;;5053220;28;20178;-64
2022/02/19 10:16:12;;;;;;;4.22;1.15;;;18.30;49.90;;;;;;5008907;28;20211;-65
2022/02/19 10:18:39;;;;;;;4.10;1.35;;;18.40;49.70;;;;;;5052576;28;20222;-65
2022/02/19 10:21:24;;;;;;;3.70;1.85;;;18.50;49.70;;;;;;5052965;28;20540;-64
2022/02/19 10:23:56;;;;;;;4.50;1.73;;;18.60;49.60;;;;;;5052631;28;20176;-64
2022/02/19 10:26:22;;;;;;;2.67;1.52;;;18.60;49.60;;;;;;5053370;28;20544;-63
2022/02/19 10:29:00;;;;;;;2.08;1.30;;;18.50;49.60;;;;;;5052975;28;20541;-66
2022/02/19 10:31:26;;;;;;;3.00;1.55;;;18.40;49.70;;;;;;5052475;28;20225;-65
2022/02/19 10:34:08;;;;;;;3.53;1.48;;;18.40;49.60;;;;;;5053011;28;20274;-66
2022/02/19 10:36:46;;;;;;;2.92;1.45;;;18.40;49.70;;;;;;5037256;28;20175;-65
2022/02/19 10:39:12;;;;;;;4.47;1.42;;;18.30;49.70;;;;;;5052180;28;20270;-65
2022/02/19 10:41:39;;;;;;;3.15;1.45;;;18.40;49.60;;;;;;5053423;28;20258;-65
2022/02/19 10:44:22;;;;;;;6.60;1.95;;;18.40;49.50;;;;;;5052659;28;20187;-65
2022/02/19 10:46:48;;;;;;;3.08;1.30;;;18.40;49.50;;;;;;5052499;28;20288;-64
2022/02/19 10:49:13;;;;;;;4.88;1.35;;;18.30;49.60;;;;;;5052741;28;20179;-64
2022/02/19 10:51:43;;;;;;;3.42;1.63;;;18.40;49.60;;;;;;5052900;28;20301;-64
2022/02/19 10:54:09;;;;;;;2.38;1.10;;;18.40;49.70;;;;;;5052164;28;20171;-65
2022/02/19 10:56:35;;;;;;;3.58;1.45;;;18.40;49.70;;;;;;5052819;28;20680;-66
2022/02/19 10:59:05;;;;;;;2.88;1.45;;;18.40;49.50;;;;;;5051671;28;20181;-65
2022/02/19 11:01:57;;;;;;;4.93;1.65;;;18.40;49.60;;;;;;5052833;28;20183;-65
2022/02/19 11:04:23;;;;;;;2.42;1.17;;;18.30;49.80;;;;;;5031190;28;20240;-66
2022/02/19 11:06:49;;;;;;;2.45;1.30;;;18.20;49.80;;;;;;5052004;28;20179;-66
2022/02/19 11:09:14;;;;;;;2.50;1.40;;;18.20;49.90;;;;;;5054121;28;20182;-65
2022/02/19 11:11:44;;;;;;;3.35;1.40;;;18.20;49.70;;;;;;5072744;28;20218;-65
2022/02/19 11:14:11;;;;;;;3.08;1.60;;;18.30;49.70;;;;;;5071739;28;20186;-64
2022/02/19 11:16:36;;;;;;;3.88;1.50;;;18.30;49.60;;;;;;5076977;28;20174;-65
2022/02/19 11:19:02;;;;;;;3.25;1.40;;;18.30;49.60;;;;;;5078872;28;20517;-64
2022/02/19 11:21:29;;;;;;;3.55;1.35;;;18.20;49.60;;;;;;5078401;28;20282;-65
2022/02/19 11:23:54;;;;;;;2.63;1.30;;;18.20;49.90;;;;;;5078784;28;20197;-64
2022/02/19 11:26:21;;;;;;;4.97;1.42;;;18.10;50.00;;;;;;5061184;28;20174;-65
2022/02/19 11:28:47;;;;;;;3.40;1.35;;;18.00;50.00;;;;;;5078629;28;20189;-65
2022/02/19 11:31:14;;;;;;;3.63;1.60;;;17.90;50.10;;;;;;5078544;28;20213;-65
2022/02/19 11:33:42;;;;;;;2.70;1.15;;;18.00;50.00;;;;;;5061529;28;20174;-66
2022/02/19 11:36:08;;;;;;;2.78;1.25;;;18.10;50.00;;;;;;5077925;28;20174;-65
2022/02/19 11:38:46;;;;;;;3.20;1.48;;;18.20;49.90;;;;;;5078921;28;20277;-65
2022/02/19 11:41:15;;;;;;;4.10;1.50;;;18.20;49.70;;;;;;5078228;28;20245;-65
2022/02/19 11:43:47;;;;;;;4.38;1.65;;;18.30;49.70;;;;;;5079073;28;20178;-64
2022/02/19 11:46:16;;;;;;;3.15;1.55;;;18.20;49.70;;;;;;5078647;28;20197;-65
2022/02/19 11:48:42;;;;;;;4.03;1.67;;;18.10;49.70;;;;;;5078246;28;20182;-64
2022/02/19 11:51:20;;;;;;;3.78;1.20;;;18.10;49.80;;;;;;5078336;28;20202;-64
2022/02/19 11:53:49;;;;;;;3.15;1.52;;;18.20;49.70;;;;;;5079165;28;20174;-70
2022/02/19 11:56:30;;;;;;;2.90;1.38;;;18.10;49.70;;;;;;5077843;28;20225;-71
2022/02/19 11:58:57;;;;;;;5.35;1.40;;;18.20;49.70;;;;;;5078857;28;20174;-66
2022/02/19 12:01:23;;;;;;;4.82;1.50;;;18.10;49.90;;;;;;5078598;28;20189;-67
2022/02/19 12:03:48;;;;;;;5.07;1.60;;;18.00;50.10;;;;;;5078018;28;20555;-67
2022/02/19 12:06:18;;;;;;;7.03;1.65;;;18.00;50.30;;;;;;5078339;28;20236;-67
2022/02/19 12:08:48;;;;;;;4.93;1.38;;;18.00;50.30;;;;;;5078857;28;20209;-66
2022/02/19 12:11:23;;;;;;;3.10;1.80;;;18.00;50.30;;;;;;5059323;28;20211;-65
2022/02/19 12:13:49;;;;;;;3.33;1.60;;;18.10;50.00;;;;;;5058534;28;20540;-66
2022/02/19 12:16:34;;;;;;;3.38;1.52;;;18.20;50.00;;;;;;5058520;28;20240;-65
2022/02/19 12:19:10;;;;;;;5.10;1.70;;;18.20;49.90;;;;;;5058527;28;20183;-65
2022/02/19 12:21:43;;;;;;;2.13;1.23;;;18.30;49.80;;;;;;5058750;28;20182;-67
2022/02/19 12:24:10;;;;;;;2.85;1.10;;;18.30;49.90;;;;;;5057631;28;20213;-65
2022/02/19 12:26:59;;;;;;;3.63;1.30;;;18.30;50.00;;;;;;5058273;28;20171;-66
2022/02/19 12:29:25;;;;;;;4.47;1.63;;;18.30;50.10;;;;;;5055099;28;20179;-68
2022/02/19 12:32:17;;;;;;;7.03;1.60;;;18.30;50.00;;;;;;5054627;28;20268;-64
2022/02/19 12:34:49;;;;;;;5.28;1.20;;;18.40;50.00;;;;;;5055390;28;20608;-66
2022/02/19 12:37:14;;;;;;;7.07;1.33;;;18.50;49.70;;;;;;5054822;28;20668;-64
2022/02/19 12:39:51;;;;;;;5.25;1.42;;;18.50;49.60;;;;;;5054592;28;20187;-66
2022/02/19 12:42:21;;;;;;;5.32;1.42;;;18.70;49.40;;;;;;5055007;28;20273;-64
2022/02/19 12:44:48;;;;;;;5.07;1.55;;;18.80;49.20;;;;;;5054291;28;20982;-64
2022/02/19 12:47:17;;;;;;;2.90;1.25;;;18.80;49.00;;;;;;5054596;28;20226;-65
2022/02/19 12:49:42;;;;;;;4.78;1.30;;;18.90;48.90;;;;;;5055178;28;20175;-65
2022/02/19 12:52:08;;;;;;;4.32;1.83;;;18.90;48.90;;;;;;5054105;28;20190;-65
2022/02/19 12:54:35;;;;;;;2.50;1.35;;;18.90;48.80;;;;;;5054862;28;20190;-66